createdAt,value
2023-04-17T10:33:55.327Z,26.80
2023-04-17T11:13:56.611Z,30.30
2023-04-17T11:16:25.694Z,30.50
2023-04-17T15:02:13.777Z,26.40
2023-04-17T20:04:22.948Z,23.20
2023-04-17T20:06:51.567Z,15.60
2023-04-17T20:09:20.331Z,15.10
2023-04-17T20:11:49.297Z,15.10
2023-04-17T20:14:19.525Z,15.00
2023-04-17T20:16:49.925Z,15.00
2023-04-17T20:19:18.534Z,14.90
2023-04-17T20:21:47.546Z,14.80
2023-04-17T20:24:37.666Z,14.80
2023-04-17T20:27:06.612Z,14.70
2023-04-17T20:29:35.289Z,14.60
2023-04-17T20:32:04.168Z,14.60
2023-04-17T20:34:34.405Z,14.50
2023-04-17T20:37:03.312Z,14.50
2023-04-17T20:39:32.078Z,14.40
2023-04-17T20:42:01.943Z,14.40
2023-04-17T20:44:32.097Z,14.40
2023-04-17T20:47:00.770Z,14.30
2023-04-17T20:49:29.438Z,14.30
2023-04-17T20:51:59.467Z,14.30
2023-04-17T20:54:28.824Z,14.20
2023-04-17T20:56:57.564Z,14.30
2023-04-17T20:59:26.548Z,14.30
2023-04-17T21:01:55.259Z,14.30
2023-04-17T21:04:24.044Z,14.40
2023-04-17T21:06:52.648Z,14.50
2023-04-17T21:09:23.269Z,14.60
2023-04-17T21:11:51.972Z,14.70
2023-04-17T21:14:21.176Z,14.70
2023-04-17T21:16:49.987Z,14.60
2023-04-17T21:19:20.269Z,14.60
2023-04-17T21:21:48.947Z,14.60
2023-04-17T21:24:17.543Z,14.50
2023-04-17T21:26:46.326Z,14.50
2023-04-17T21:29:14.997Z,14.40
2023-04-17T21:31:44.170Z,14.30
2023-04-17T21:34:13.151Z,14.30
2023-04-17T21:36:41.985Z,14.20
2023-04-17T21:39:10.916Z,14.10
2023-04-17T21:41:39.540Z,14.00
2023-04-17T21:44:09.889Z,13.90
2023-04-17T21:46:39.479Z,13.90
2023-04-17T21:49:08.730Z,13.80
2023-04-17T21:51:37.372Z,13.80
2023-04-17T21:54:06.093Z,13.70
2023-04-17T22:01:31.334Z,13.40
2023-04-17T22:04:00.047Z,13.40
2023-04-17T22:06:28.678Z,13.30
2023-04-17T22:08:57.272Z,13.20
2023-04-17T22:11:25.880Z,13.20
2023-04-17T22:13:54.586Z,13.10
2023-04-17T22:16:23.245Z,13.10
2023-04-17T22:18:52.040Z,13.00
2023-04-17T22:21:20.837Z,12.90
2023-04-17T22:23:49.440Z,12.90
2023-04-17T22:26:18.077Z,12.80
2023-04-17T22:28:46.825Z,12.80
2023-04-17T22:31:16.081Z,12.70
2023-04-17T22:33:44.979Z,12.70
2023-04-17T22:36:13.572Z,12.70
2023-04-17T22:38:42.194Z,12.70
2023-04-17T22:41:10.784Z,12.70
2023-04-17T22:43:39.516Z,12.60
2023-04-17T22:46:08.226Z,12.60
2023-04-17T22:48:37.015Z,12.50
2023-04-17T22:51:06.016Z,12.50
2023-04-17T22:53:34.735Z,12.40
2023-04-17T22:56:05.003Z,12.40
2023-04-17T22:58:35.056Z,12.40
2023-04-17T23:01:03.921Z,12.30
2023-04-17T23:03:32.768Z,12.30
2023-04-17T23:06:01.519Z,12.30
2023-04-17T23:08:31.814Z,12.20
2023-04-17T23:11:04.995Z,12.20
2023-04-17T23:13:33.720Z,12.20
2023-04-17T23:16:02.428Z,12.20
2023-04-17T23:18:31.346Z,12.20
2023-04-17T23:21:00.034Z,12.10
2023-04-17T23:23:28.637Z,12.00
2023-04-17T23:25:57.269Z,12.10
2023-04-17T23:28:27.658Z,12.10
2023-04-17T23:30:56.301Z,12.00
2023-04-17T23:33:25.486Z,12.00
2023-04-17T23:35:54.166Z,12.00
2023-04-17T23:38:22.752Z,11.70
2023-04-17T23:40:51.322Z,11.90
2023-04-17T23:43:20.059Z,11.80
2023-04-17T23:45:48.698Z,11.80
2023-04-17T23:48:17.278Z,11.70
2023-04-17T23:50:46.119Z,11.70
2023-04-17T23:53:14.700Z,11.60
2023-04-17T23:55:43.410Z,11.70
2023-04-17T23:58:12.249Z,11.60
